sensor_id;sensor_type;location;lat;lon;timestamp;P1;durP1;ratioP1;P2;durP2;ratioP2
25667;SDS011;18003;-33.830;151.202;2023-04-25T00:00:38;14.78;;;3.90;;
25667;SDS011;18003;-33.830;151.202;2023-04-25T00:03:08;13.80;;;3.60;;
25667;SDS011;18003;-33.830;151.202;2023-04-25T00:05:39;14.95;;;4.08;;
25667;SDS011;18003;-33.830;151.202;2023-04-25T00:08:09;12.07;;;3.12;;
25667;SDS011;18003;-33.830;151.202;2023-04-25T00:10:39;11.60;;;3.08;;
25667;SDS011;18003;-33.830;151.202;2023-04-25T00:13:09;11.60;;;3.25;;
25667;SDS011;18003;-33.830;151.202;2023-04-25T00:15:40;9.88;;;3.02;;
25667;SDS011;18003;-33.830;151.202;2023-04-25T00:18:10;12.50;;;3.58;;
25667;SDS011;18003;-33.830;151.202;2023-04-25T00:20:40;10.80;;;3.45;;
25667;SDS011;18003;-33.830;151.202;2023-04-25T00:23:11;10.82;;;3.45;;
25667;SDS011;18003;-33.830;151.202;2023-04-25T00:25:42;11.03;;;3.98;;
25667;SDS011;18003;-33.830;151.202;2023-04-25T00:28:12;8.95;;;3.15;;
25667;SDS011;18003;-33.830;151.202;2023-04-25T00:30:42;11.80;;;3.47;;
25667;SDS011;18003;-33.830;151.202;2023-04-25T00:33:13;15.10;;;4.03;;
25667;SDS011;18003;-33.830;151.202;2023-04-25T00:35:43;11.78;;;4.08;;
25667;SDS011;18003;-33.830;151.202;2023-04-25T00:38:13;9.63;;;3.72;;
25667;SDS011;18003;-33.830;151.202;2023-04-25T00:40:43;11.15;;;3.47;;
25667;SDS011;18003;-33.830;151.202;2023-04-25T00:43:13;10.25;;;3.40;;
25667;SDS011;18003;-33.830;151.202;2023-04-25T00:45:43;12.03;;;4.20;;
25667;SDS011;18003;-33.830;151.202;2023-04-25T00:48:17;8.30;;;3.22;;
25667;SDS011;18003;-33.830;151.202;2023-04-25T00:50:51;11.53;;;3.77;;
25667;SDS011;18003;-33.830;151.202;2023-04-25T00:53:20;12.18;;;3.50;;
25667;SDS011;18003;-33.830;151.202;2023-04-25T00:55:51;10.75;;;3.77;;
25667;SDS011;18003;-33.830;151.202;2023-04-25T00:58:21;8.73;;;3.50;;
25667;SDS011;18003;-33.830;151.202;2023-04-25T01:00:52;8.53;;;3.72;;
25667;SDS011;18003;-33.830;151.202;2023-04-25T01:03:23;9.80;;;4.03;;
25667;SDS011;18003;-33.830;151.202;2023-04-25T01:05:54;8.10;;;3.90;;
25667;SDS011;18003;-33.830;151.202;2023-04-25T01:08:24;12.30;;;4.50;;
25667;SDS011;18003;-33.830;151.202;2023-04-25T01:10:54;106.58;;;12.00;;
25667;SDS011;18003;-33.830;151.202;2023-04-25T01:13:24;47.67;;;8.38;;
25667;SDS011;18003;-33.830;151.202;2023-04-25T01:15:55;16.70;;;5.42;;
25667;SDS011;18003;-33.830;151.202;2023-04-25T01:18:24;13.95;;;5.33;;
25667;SDS011;18003;-33.830;151.202;2023-04-25T01:20:54;15.65;;;5.05;;
25667;SDS011;18003;-33.830;151.202;2023-04-25T01:23:25;11.70;;;4.33;;
25667;SDS011;18003;-33.830;151.202;2023-04-25T01:25:55;8.85;;;4.08;;
25667;SDS011;18003;-33.830;151.202;2023-04-25T01:28:25;7.12;;;4.28;;
25667;SDS011;18003;-33.830;151.202;2023-04-25T01:30:56;13.25;;;4.53;;
25667;SDS011;18003;-33.830;151.202;2023-04-25T01:33:27;19.15;;;4.50;;
25667;SDS011;18003;-33.830;151.202;2023-04-25T01:35:58;12.28;;;4.30;;
25667;SDS011;18003;-33.830;151.202;2023-04-25T01:38:27;13.30;;;4.20;;
25667;SDS011;18003;-33.830;151.202;2023-04-25T01:40:58;5.80;;;3.67;;
25667;SDS011;18003;-33.830;151.202;2023-04-25T01:43:28;8.83;;;3.90;;
25667;SDS011;18003;-33.830;151.202;2023-04-25T01:45:57;9.75;;;4.20;;
25667;SDS011;18003;-33.830;151.202;2023-04-25T01:48:28;7.83;;;3.90;;
25667;SDS011;18003;-33.830;151.202;2023-04-25T01:50:58;8.13;;;3.75;;
25667;SDS011;18003;-33.830;151.202;2023-04-25T01:53:28;7.17;;;3.67;;
25667;SDS011;18003;-33.830;151.202;2023-04-25T01:56:02;5.55;;;3.10;;
25667;SDS011;18003;-33.830;151.202;2023-04-25T01:58:31;9.63;;;3.00;;
25667;SDS011;18003;-33.830;151.202;2023-04-25T02:01:01;8.25;;;3.22;;
25667;SDS011;18003;-33.830;151.202;2023-04-25T02:03:32;10.70;;;3.80;;
25667;SDS011;18003;-33.830;151.202;2023-04-25T02:06:02;8.58;;;3.67;;
25667;SDS011;18003;-33.830;151.202;2023-04-25T02:08:32;7.15;;;3.35;;
25667;SDS011;18003;-33.830;151.202;2023-04-25T02:11:04;5.33;;;3.00;;
25667;SDS011;18003;-33.830;151.202;2023-04-25T02:13:34;7.12;;;3.50;;
25667;SDS011;18003;-33.830;151.202;2023-04-25T02:16:04;9.58;;;3.20;;
25667;SDS011;18003;-33.830;151.202;2023-04-25T02:18:34;7.30;;;3.27;;
25667;SDS011;18003;-33.830;151.202;2023-04-25T02:21:04;8.55;;;2.98;;
25667;SDS011;18003;-33.830;151.202;2023-04-25T02:23:34;9.03;;;3.60;;
25667;SDS011;18003;-33.830;151.202;2023-04-25T02:26:05;9.70;;;3.02;;
25667;SDS011;18003;-33.830;151.202;2023-04-25T02:28:35;17.02;;;3.65;;
25667;SDS011;18003;-33.830;151.202;2023-04-25T02:31:05;10.63;;;3.45;;
25667;SDS011;18003;-33.830;151.202;2023-04-25T02:33:35;7.67;;;3.58;;
25667;SDS011;18003;-33.830;151.202;2023-04-25T02:36:05;8.03;;;3.50;;
25667;SDS011;18003;-33.830;151.202;2023-04-25T02:38:35;9.20;;;3.65;;
25667;SDS011;18003;-33.830;151.202;2023-04-25T02:41:05;9.05;;;3.50;;
25667;SDS011;18003;-33.830;151.202;2023-04-25T02:43:35;9.10;;;3.05;;
25667;SDS011;18003;-33.830;151.202;2023-04-25T02:46:05;11.25;;;3.70;;
25667;SDS011;18003;-33.830;151.202;2023-04-25T02:48:36;7.67;;;3.37;;
25667;SDS011;18003;-33.830;151.202;2023-04-25T02:51:06;9.53;;;3.33;;
25667;SDS011;18003;-33.830;151.202;2023-04-25T02:53:36;9.93;;;3.12;;
25667;SDS011;18003;-33.830;151.202;2023-04-25T02:56:05;9.13;;;3.95;;
25667;SDS011;18003;-33.830;151.202;2023-04-25T02:58:36;9.68;;;3.42;;
25667;SDS011;18003;-33.830;151.202;2023-04-25T03:01:06;8.58;;;3.40;;
25667;SDS011;18003;-33.830;151.202;2023-04-25T03:03:35;7.78;;;3.22;;
25667;SDS011;18003;-33.830;151.202;2023-04-25T03:06:05;11.28;;;3.70;;
25667;SDS011;18003;-33.830;151.202;2023-04-25T03:08:36;7.92;;;3.17;;
25667;SDS011;18003;-33.830;151.202;2023-04-25T03:11:06;9.83;;;3.50;;
25667;SDS011;18003;-33.830;151.202;2023-04-25T03:13:37;8.33;;;3.58;;
25667;SDS011;18003;-33.830;151.202;2023-04-25T03:16:07;7.70;;;3.05;;
25667;SDS011;18003;-33.830;151.202;2023-04-25T03:18:37;9.83;;;3.40;;
25667;SDS011;18003;-33.830;151.202;2023-04-25T03:21:07;11.33;;;3.50;;
25667;SDS011;18003;-33.830;151.202;2023-04-25T03:23:37;8.75;;;3.33;;
25667;SDS011;18003;-33.830;151.202;2023-04-25T03:26:07;12.30;;;3.80;;
25667;SDS011;18003;-33.830;151.202;2023-04-25T03:28:37;10.20;;;3.42;;
25667;SDS011;18003;-33.830;151.202;2023-04-25T03:31:08;12.80;;;3.60;;
25667;SDS011;18003;-33.830;151.202;2023-04-25T03:33:39;10.48;;;3.70;;
25667;SDS011;18003;-33.830;151.202;2023-04-25T03:36:09;16.25;;;3.87;;
25667;SDS011;18003;-33.830;151.202;2023-04-25T03:38:39;13.85;;;3.22;;
25667;SDS011;18003;-33.830;151.202;2023-04-25T03:41:09;12.25;;;3.37;;
25667;SDS011;18003;-33.830;151.202;2023-04-25T03:43:39;10.60;;;3.20;;
25667;SDS011;18003;-33.830;151.202;2023-04-25T03:46:09;13.48;;;3.98;;
25667;SDS011;18003;-33.830;151.202;2023-04-25T03:48:39;9.88;;;3.17;;
25667;SDS011;18003;-33.830;151.202;2023-04-25T03:51:09;10.40;;;3.00;;
25667;SDS011;18003;-33.830;151.202;2023-04-25T03:53:41;11.53;;;2.98;;
25667;SDS011;18003;-33.830;151.202;2023-04-25T03:56:12;12.37;;;2.83;;
25667;SDS011;18003;-33.830;151.202;2023-04-25T03:58:42;9.03;;;3.15;;
25667;SDS011;18003;-33.830;151.202;2023-04-25T04:01:12;10.55;;;3.05;;
25667;SDS011;18003;-33.830;151.202;2023-04-25T04:03:43;10.53;;;3.52;;
25667;SDS011;18003;-33.830;151.202;2023-04-25T04:06:13;12.05;;;3.52;;
25667;SDS011;18003;-33.830;151.202;2023-04-25T04:08:43;10.70;;;3.22;;
25667;SDS011;18003;-33.830;151.202;2023-04-25T04:11:14;9.10;;;3.12;;
25667;SDS011;18003;-33.830;151.202;2023-04-25T04:13:44;8.80;;;3.40;;
25667;SDS011;18003;-33.830;151.202;2023-04-25T04:16:16;11.28;;;3.67;;
25667;SDS011;18003;-33.830;151.202;2023-04-25T04:18:46;10.38;;;3.10;;
25667;SDS011;18003;-33.830;151.202;2023-04-25T04:21:16;12.28;;;3.65;;
25667;SDS011;18003;-33.830;151.202;2023-04-25T04:23:46;10.25;;;3.52;;
25667;SDS011;18003;-33.830;151.202;2023-04-25T04:26:16;11.83;;;3.83;;
25667;SDS011;18003;-33.830;151.202;2023-04-25T04:28:47;14.68;;;4.17;;
25667;SDS011;18003;-33.830;151.202;2023-04-25T04:31:18;9.23;;;3.52;;
25667;SDS011;18003;-33.830;151.202;2023-04-25T04:33:48;10.90;;;3.50;;
25667;SDS011;18003;-33.830;151.202;2023-04-25T04:36:18;10.82;;;3.40;;
25667;SDS011;18003;-33.830;151.202;2023-04-25T04:38:49;10.13;;;3.55;;
25667;SDS011;18003;-33.830;151.202;2023-04-25T04:41:19;9.33;;;3.45;;
25667;SDS011;18003;-33.830;151.202;2023-04-25T04:43:49;11.45;;;3.15;;
25667;SDS011;18003;-33.830;151.202;2023-04-25T04:46:20;10.13;;;3.50;;
25667;SDS011;18003;-33.830;151.202;2023-04-25T04:48:52;8.55;;;3.27;;
25667;SDS011;18003;-33.830;151.202;2023-04-25T04:51:22;9.33;;;3.40;;
25667;SDS011;18003;-33.830;151.202;2023-04-25T04:53:52;12.23;;;3.83;;
25667;SDS011;18003;-33.830;151.202;2023-04-25T04:56:24;10.20;;;3.22;;
25667;SDS011;18003;-33.830;151.202;2023-04-25T04:58:54;12.70;;;3.70;;
25667;SDS011;18003;-33.830;151.202;2023-04-25T05:01:25;9.40;;;2.83;;
25667;SDS011;18003;-33.830;151.202;2023-04-25T05:03:57;10.18;;;3.37;;
25667;SDS011;18003;-33.830;151.202;2023-04-25T05:06:27;11.33;;;3.85;;
25667;SDS011;18003;-33.830;151.202;2023-04-25T05:08:57;9.43;;;3.20;;
25667;SDS011;18003;-33.830;151.202;2023-04-25T05:11:27;10.10;;;3.58;;
25667;SDS011;18003;-33.830;151.202;2023-04-25T05:14:02;11.97;;;3.27;;
25667;SDS011;18003;-33.830;151.202;2023-04-25T05:16:33;8.83;;;3.37;;
25667;SDS011;18003;-33.830;151.202;2023-04-25T05:19:05;15.30;;;3.80;;
25667;SDS011;18003;-33.830;151.202;2023-04-25T05:21:35;11.88;;;3.40;;
25667;SDS011;18003;-33.830;151.202;2023-04-25T05:24:05;14.07;;;4.17;;
25667;SDS011;18003;-33.830;151.202;2023-04-25T05:26:35;13.58;;;3.30;;
25667;SDS011;18003;-33.830;151.202;2023-04-25T05:29:05;10.43;;;3.10;;
25667;SDS011;18003;-33.830;151.202;2023-04-25T05:31:35;13.43;;;3.25;;
25667;SDS011;18003;-33.830;151.202;2023-04-25T05:34:06;10.77;;;3.33;;
25667;SDS011;18003;-33.830;151.202;2023-04-25T05:36:36;10.95;;;3.37;;
25667;SDS011;18003;-33.830;151.202;2023-04-25T05:39:06;12.43;;;3.40;;
25667;SDS011;18003;-33.830;151.202;2023-04-25T05:41:36;12.40;;;3.45;;
25667;SDS011;18003;-33.830;151.202;2023-04-25T05:44:06;8.80;;;2.85;;
25667;SDS011;18003;-33.830;151.202;2023-04-25T05:46:36;11.88;;;3.37;;
25667;SDS011;18003;-33.830;151.202;2023-04-25T05:49:06;10.63;;;3.05;;
25667;SDS011;18003;-33.830;151.202;2023-04-25T05:51:37;12.05;;;3.15;;
25667;SDS011;18003;-33.830;151.202;2023-04-25T05:54:07;10.82;;;3.17;;
25667;SDS011;18003;-33.830;151.202;2023-04-25T05:56:37;10.93;;;3.70;;
25667;SDS011;18003;-33.830;151.202;2023-04-25T05:59:07;12.05;;;3.17;;
25667;SDS011;18003;-33.830;151.202;2023-04-25T06:01:37;11.83;;;3.33;;
25667;SDS011;18003;-33.830;151.202;2023-04-25T06:06:37;11.00;;;2.98;;
25667;SDS011;18003;-33.830;151.202;2023-04-25T06:09:07;13.10;;;3.20;;
25667;SDS011;18003;-33.830;151.202;2023-04-25T06:11:37;11.45;;;3.30;;
25667;SDS011;18003;-33.830;151.202;2023-04-25T06:14:07;11.65;;;3.50;;
25667;SDS011;18003;-33.830;151.202;2023-04-25T06:16:37;18.27;;;3.35;;
25667;SDS011;18003;-33.830;151.202;2023-04-25T06:19:07;10.13;;;2.95;;
25667;SDS011;18003;-33.830;151.202;2023-04-25T06:21:37;11.78;;;3.02;;
25667;SDS011;18003;-33.830;151.202;2023-04-25T06:24:07;15.30;;;3.47;;
25667;SDS011;18003;-33.830;151.202;2023-04-25T06:26:37;13.50;;;3.20;;
25667;SDS011;18003;-33.830;151.202;2023-04-25T06:29:11;14.93;;;3.45;;
25667;SDS011;18003;-33.830;151.202;2023-04-25T06:31:41;11.83;;;2.95;;
25667;SDS011;18003;-33.830;151.202;2023-04-25T06:34:11;10.90;;;3.42;;
25667;SDS011;18003;-33.830;151.202;2023-04-25T06:36:41;11.93;;;3.85;;
25667;SDS011;18003;-33.830;151.202;2023-04-25T06:39:11;11.90;;;3.50;;
25667;SDS011;18003;-33.830;151.202;2023-04-25T06:41:41;10.05;;;2.95;;
25667;SDS011;18003;-33.830;151.202;2023-04-25T06:44:10;18.50;;;3.17;;
25667;SDS011;18003;-33.830;151.202;2023-04-25T06:46:40;17.23;;;4.00;;
25667;SDS011;18003;-33.830;151.202;2023-04-25T06:49:10;14.18;;;3.70;;
25667;SDS011;18003;-33.830;151.202;2023-04-25T06:51:40;16.05;;;3.47;;
25667;SDS011;18003;-33.830;151.202;2023-04-25T06:54:10;22.35;;;4.17;;
25667;SDS011;18003;-33.830;151.202;2023-04-25T06:56:40;15.10;;;3.80;;
25667;SDS011;18003;-33.830;151.202;2023-04-25T06:59:10;13.83;;;3.20;;
25667;SDS011;18003;-33.830;151.202;2023-04-25T07:01:40;14.30;;;3.87;;
25667;SDS011;18003;-33.830;151.202;2023-04-25T07:04:10;36.68;;;5.22;;
25667;SDS011;18003;-33.830;151.202;2023-04-25T07:06:40;36.93;;;5.75;;
25667;SDS011;18003;-33.830;151.202;2023-04-25T07:09:10;50.40;;;7.03;;
25667;SDS011;18003;-33.830;151.202;2023-04-25T07:11:40;35.68;;;5.75;;
25667;SDS011;18003;-33.830;151.202;2023-04-25T07:14:10;31.20;;;4.85;;
25667;SDS011;18003;-33.830;151.202;2023-04-25T07:16:39;20.35;;;4.75;;
25667;SDS011;18003;-33.830;151.202;2023-04-25T07:19:09;19.95;;;4.45;;
25667;SDS011;18003;-33.830;151.202;2023-04-25T07:21:39;23.05;;;4.70;;
25667;SDS011;18003;-33.830;151.202;2023-04-25T07:24:10;16.30;;;3.58;;
25667;SDS011;18003;-33.830;151.202;2023-04-25T07:26:39;15.13;;;3.60;;
25667;SDS011;18003;-33.830;151.202;2023-04-25T07:29:09;11.85;;;3.47;;
25667;SDS011;18003;-33.830;151.202;2023-04-25T07:31:40;17.75;;;3.52;;
25667;SDS011;18003;-33.830;151.202;2023-04-25T07:34:10;16.20;;;3.00;;
25667;SDS011;18003;-33.830;151.202;2023-04-25T07:36:40;14.30;;;3.55;;
25667;SDS011;18003;-33.830;151.202;2023-04-25T07:39:10;11.83;;;3.42;;
25667;SDS011;18003;-33.830;151.202;2023-04-25T07:41:40;14.20;;;3.02;;
25667;SDS011;18003;-33.830;151.202;2023-04-25T07:44:10;13.80;;;3.30;;
25667;SDS011;18003;-33.830;151.202;2023-04-25T07:46:40;8.90;;;3.22;;
25667;SDS011;18003;-33.830;151.202;2023-04-25T07:49:10;12.40;;;3.33;;
25667;SDS011;18003;-33.830;151.202;2023-04-25T07:51:39;13.45;;;3.80;;
25667;SDS011;18003;-33.830;151.202;2023-04-25T07:54:13;10.55;;;3.30;;
25667;SDS011;18003;-33.830;151.202;2023-04-25T07:59:10;10.82;;;2.70;;
25667;SDS011;18003;-33.830;151.202;2023-04-25T08:01:40;11.53;;;3.20;;
25667;SDS011;18003;-33.830;151.202;2023-04-25T08:04:10;9.65;;;3.15;;
25667;SDS011;18003;-33.830;151.202;2023-04-25T08:06:40;9.80;;;3.02;;
25667;SDS011;18003;-33.830;151.202;2023-04-25T08:09:10;11.63;;;3.35;;
25667;SDS011;18003;-33.830;151.202;2023-04-25T08:11:39;14.73;;;3.35;;
25667;SDS011;18003;-33.830;151.202;2023-04-25T08:14:09;11.85;;;3.02;;
25667;SDS011;18003;-33.830;151.202;2023-04-25T08:16:39;9.53;;;2.98;;
25667;SDS011;18003;-33.830;151.202;2023-04-25T08:19:09;9.13;;;3.50;;
25667;SDS011;18003;-33.830;151.202;2023-04-25T08:21:39;12.95;;;3.47;;
25667;SDS011;18003;-33.830;151.202;2023-04-25T08:24:09;12.37;;;3.50;;
25667;SDS011;18003;-33.830;151.202;2023-04-25T08:26:40;10.88;;;3.10;;
25667;SDS011;18003;-33.830;151.202;2023-04-25T08:29:10;12.25;;;3.17;;
25667;SDS011;18003;-33.830;151.202;2023-04-25T08:31:45;12.35;;;3.40;;
25667;SDS011;18003;-33.830;151.202;2023-04-25T08:34:11;12.20;;;3.43;;
25667;SDS011;18003;-33.830;151.202;2023-04-25T08:36:41;12.07;;;3.20;;
25667;SDS011;18003;-33.830;151.202;2023-04-25T08:39:11;11.18;;;3.62;;
25667;SDS011;18003;-33.830;151.202;2023-04-25T08:41:41;10.55;;;3.22;;
25667;SDS011;18003;-33.830;151.202;2023-04-25T08:44:11;10.03;;;3.60;;
25667;SDS011;18003;-33.830;151.202;2023-04-25T08:46:41;10.95;;;3.70;;
25667;SDS011;18003;-33.830;151.202;2023-04-25T08:49:12;14.90;;;3.90;;
25667;SDS011;18003;-33.830;151.202;2023-04-25T08:51:47;12.88;;;4.10;;
25667;SDS011;18003;-33.830;151.202;2023-04-25T08:54:17;13.95;;;3.67;;
25667;SDS011;18003;-33.830;151.202;2023-04-25T08:56:49;11.83;;;3.52;;
25667;SDS011;18003;-33.830;151.202;2023-04-25T08:59:19;12.93;;;3.58;;
25667;SDS011;18003;-33.830;151.202;2023-04-25T09:01:57;10.68;;;3.40;;
25667;SDS011;18003;-33.830;151.202;2023-04-25T09:06:51;13.88;;;4.15;;
25667;SDS011;18003;-33.830;151.202;2023-04-25T09:09:21;14.03;;;4.42;;
25667;SDS011;18003;-33.830;151.202;2023-04-25T09:11:52;16.12;;;4.00;;
25667;SDS011;18003;-33.830;151.202;2023-04-25T09:14:23;14.38;;;4.30;;
25667;SDS011;18003;-33.830;151.202;2023-04-25T09:19:32;9.65;;;3.72;;
25667;SDS011;18003;-33.830;151.202;2023-04-25T09:22:04;13.38;;;3.62;;
25667;SDS011;18003;-33.830;151.202;2023-04-25T09:24:36;14.47;;;4.17;;
25667;SDS011;18003;-33.830;151.202;2023-04-25T09:27:18;11.60;;;3.77;;
25667;SDS011;18003;-33.830;151.202;2023-04-25T09:29:40;12.55;;;3.87;;
25667;SDS011;18003;-33.830;151.202;2023-04-25T09:32:17;13.40;;;4.30;;
25667;SDS011;18003;-33.830;151.202;2023-04-25T09:34:49;12.63;;;3.83;;
25667;SDS011;18003;-33.830;151.202;2023-04-25T09:37:30;11.12;;;4.00;;
25667;SDS011;18003;-33.830;151.202;2023-04-25T09:42:26;14.73;;;4.00;;
25667;SDS011;18003;-33.830;151.202;2023-04-25T09:44:58;11.78;;;3.67;;
25667;SDS011;18003;-33.830;151.202;2023-04-25T09:47:31;11.43;;;3.92;;
25667;SDS011;18003;-33.830;151.202;2023-04-25T09:50:02;12.95;;;3.47;;
25667;SDS011;18003;-33.830;151.202;2023-04-25T09:52:33;13.30;;;4.20;;
25667;SDS011;18003;-33.830;151.202;2023-04-25T09:55:03;14.90;;;4.20;;
25667;SDS011;18003;-33.830;151.202;2023-04-25T09:57:34;16.25;;;4.17;;
25667;SDS011;18003;-33.830;151.202;2023-04-25T10:00:07;11.90;;;4.30;;
25667;SDS011;18003;-33.830;151.202;2023-04-25T10:02:39;10.23;;;3.70;;
25667;SDS011;18003;-33.830;151.202;2023-04-25T10:05:10;15.08;;;3.87;;
25667;SDS011;18003;-33.830;151.202;2023-04-25T10:07:41;11.73;;;4.15;;
25667;SDS011;18003;-33.830;151.202;2023-04-25T10:10:12;14.27;;;3.93;;
25667;SDS011;18003;-33.830;151.202;2023-04-25T10:12:42;13.13;;;3.83;;
25667;SDS011;18003;-33.830;151.202;2023-04-25T10:15:13;12.00;;;4.20;;
25667;SDS011;18003;-33.830;151.202;2023-04-25T10:17:44;10.95;;;4.25;;
25667;SDS011;18003;-33.830;151.202;2023-04-25T10:20:14;12.15;;;3.92;;
25667;SDS011;18003;-33.830;151.202;2023-04-25T10:22:45;12.07;;;4.30;;
25667;SDS011;18003;-33.830;151.202;2023-04-25T10:25:16;12.70;;;4.85;;
25667;SDS011;18003;-33.830;151.202;2023-04-25T10:27:47;13.08;;;4.10;;
25667;SDS011;18003;-33.830;151.202;2023-04-25T10:30:22;16.23;;;4.20;;
25667;SDS011;18003;-33.830;151.202;2023-04-25T10:32:52;13.00;;;4.40;;
25667;SDS011;18003;-33.830;151.202;2023-04-25T10:35:30;15.93;;;4.40;;
25667;SDS011;18003;-33.830;151.202;2023-04-25T10:38:02;14.25;;;4.25;;
25667;SDS011;18003;-33.830;151.202;2023-04-25T10:40:32;12.40;;;4.00;;
25667;SDS011;18003;-33.830;151.202;2023-04-25T10:46:24;14.78;;;3.92;;
25667;SDS011;18003;-33.830;151.202;2023-04-25T10:48:59;12.60;;;4.28;;
25667;SDS011;18003;-33.830;151.202;2023-04-25T10:51:33;9.20;;;3.95;;
25667;SDS011;18003;-33.830;151.202;2023-04-25T10:54:05;14.43;;;4.35;;
25667;SDS011;18003;-33.830;151.202;2023-04-25T10:56:39;12.05;;;4.20;;
25667;SDS011;18003;-33.830;151.202;2023-04-25T10:59:14;12.65;;;4.35;;
25667;SDS011;18003;-33.830;151.202;2023-04-25T11:01:45;11.03;;;4.28;;
25667;SDS011;18003;-33.830;151.202;2023-04-25T11:07:10;16.05;;;4.20;;
25667;SDS011;18003;-33.830;151.202;2023-04-25T11:09:39;11.83;;;3.85;;
25667;SDS011;18003;-33.830;151.202;2023-04-25T11:12:09;13.53;;;4.03;;
25667;SDS011;18003;-33.830;151.202;2023-04-25T11:14:54;12.28;;;3.95;;
25667;SDS011;18003;-33.830;151.202;2023-04-25T11:17:24;11.08;;;4.05;;
25667;SDS011;18003;-33.830;151.202;2023-04-25T11:20:16;13.70;;;4.60;;
25667;SDS011;18003;-33.830;151.202;2023-04-25T11:22:45;10.78;;;3.85;;
25667;SDS011;18003;-33.830;151.202;2023-04-25T11:28:20;11.33;;;4.28;;
25667;SDS011;18003;-33.830;151.202;2023-04-25T11:30:54;13.30;;;4.70;;
25667;SDS011;18003;-33.830;151.202;2023-04-25T11:33:28;14.35;;;4.17;;
25667;SDS011;18003;-33.830;151.202;2023-04-25T11:35:55;15.40;;;4.58;;
25667;SDS011;18003;-33.830;151.202;2023-04-25T11:38:29;15.43;;;4.90;;
25667;SDS011;18003;-33.830;151.202;2023-04-25T11:46:55;10.78;;;4.20;;
25667;SDS011;18003;-33.830;151.202;2023-04-25T11:49:38;11.90;;;4.55;;
25667;SDS011;18003;-33.830;151.202;2023-04-25T11:52:08;12.33;;;4.28;;
25667;SDS011;18003;-33.830;151.202;2023-04-25T11:54:37;8.18;;;4.25;;
25667;SDS011;18003;-33.830;151.202;2023-04-25T11:57:08;13.03;;;6.37;;
25667;SDS011;18003;-33.830;151.202;2023-04-25T11:59:49;12.15;;;5.25;;
25667;SDS011;18003;-33.830;151.202;2023-04-25T12:02:25;11.55;;;5.58;;
25667;SDS011;18003;-33.830;151.202;2023-04-25T12:04:58;17.98;;;7.58;;
25667;SDS011;18003;-33.830;151.202;2023-04-25T12:07:30;12.18;;;6.05;;
25667;SDS011;18003;-33.830;151.202;2023-04-25T12:10:03;13.25;;;5.15;;
25667;SDS011;18003;-33.830;151.202;2023-04-25T12:12:34;11.33;;;5.25;;
25667;SDS011;18003;-33.830;151.202;2023-04-25T12:17:47;12.20;;;5.35;;
25667;SDS011;18003;-33.830;151.202;2023-04-25T12:20:21;10.78;;;4.50;;
25667;SDS011;18003;-33.830;151.202;2023-04-25T12:22:56;12.00;;;4.53;;
25667;SDS011;18003;-33.830;151.202;2023-04-25T12:25:35;9.43;;;4.17;;
25667;SDS011;18003;-33.830;151.202;2023-04-25T12:28:17;9.78;;;4.70;;
25667;SDS011;18003;-33.830;151.202;2023-04-25T12:30:58;10.32;;;4.20;;
25667;SDS011;18003;-33.830;151.202;2023-04-25T12:33:36;11.35;;;4.33;;
25667;SDS011;18003;-33.830;151.202;2023-04-25T12:36:08;11.33;;;4.45;;
25667;SDS011;18003;-33.830;151.202;2023-04-25T12:38:39;10.20;;;4.42;;
25667;SDS011;18003;-33.830;151.202;2023-04-25T12:41:10;9.35;;;3.67;;
25667;SDS011;18003;-33.830;151.202;2023-04-25T12:43:40;11.22;;;4.35;;
25667;SDS011;18003;-33.830;151.202;2023-04-25T12:46:10;10.38;;;3.87;;
25667;SDS011;18003;-33.830;151.202;2023-04-25T12:48:43;10.43;;;4.10;;
25667;SDS011;18003;-33.830;151.202;2023-04-25T12:51:13;10.08;;;4.75;;
25667;SDS011;18003;-33.830;151.202;2023-04-25T12:53:43;13.60;;;8.50;;
25667;SDS011;18003;-33.830;151.202;2023-04-25T12:56:13;20.15;;;13.18;;
25667;SDS011;18003;-33.830;151.202;2023-04-25T12:58:43;17.55;;;10.38;;
25667;SDS011;18003;-33.830;151.202;2023-04-25T13:01:13;15.35;;;7.90;;
25667;SDS011;18003;-33.830;151.202;2023-04-25T13:03:42;16.17;;;7.47;;
25667;SDS011;18003;-33.830;151.202;2023-04-25T13:06:12;10.85;;;4.80;;
25667;SDS011;18003;-33.830;151.202;2023-04-25T13:08:43;11.95;;;4.45;;
25667;SDS011;18003;-33.830;151.202;2023-04-25T13:11:13;14.13;;;4.35;;
25667;SDS011;18003;-33.830;151.202;2023-04-25T13:13:43;12.40;;;4.25;;
25667;SDS011;18003;-33.830;151.202;2023-04-25T13:16:13;11.80;;;4.10;;
25667;SDS011;18003;-33.830;151.202;2023-04-25T13:18:43;12.07;;;3.98;;
25667;SDS011;18003;-33.830;151.202;2023-04-25T13:21:13;10.68;;;3.60;;
25667;SDS011;18003;-33.830;151.202;2023-04-25T13:23:43;10.20;;;3.92;;
25667;SDS011;18003;-33.830;151.202;2023-04-25T13:26:13;12.98;;;3.70;;
25667;SDS011;18003;-33.830;151.202;2023-04-25T13:28:43;10.40;;;3.95;;
25667;SDS011;18003;-33.830;151.202;2023-04-25T13:31:13;12.23;;;4.20;;
25667;SDS011;18003;-33.830;151.202;2023-04-25T13:33:43;7.83;;;3.55;;
25667;SDS011;18003;-33.830;151.202;2023-04-25T13:36:13;10.90;;;3.55;;
25667;SDS011;18003;-33.830;151.202;2023-04-25T13:38:44;12.60;;;3.80;;
25667;SDS011;18003;-33.830;151.202;2023-04-25T13:41:15;11.60;;;3.85;;
25667;SDS011;18003;-33.830;151.202;2023-04-25T13:43:46;11.57;;;3.75;;
25667;SDS011;18003;-33.830;151.202;2023-04-25T13:46:16;9.53;;;3.40;;
25667;SDS011;18003;-33.830;151.202;2023-04-25T13:48:46;11.43;;;3.83;;
25667;SDS011;18003;-33.830;151.202;2023-04-25T13:51:16;8.88;;;3.55;;
25667;SDS011;18003;-33.830;151.202;2023-04-25T13:53:47;9.13;;;3.35;;
25667;SDS011;18003;-33.830;151.202;2023-04-25T13:56:17;10.70;;;3.40;;
25667;SDS011;18003;-33.830;151.202;2023-04-25T13:58:47;9.38;;;3.20;;
25667;SDS011;18003;-33.830;151.202;2023-04-25T14:01:18;10.90;;;3.60;;
25667;SDS011;18003;-33.830;151.202;2023-04-25T14:03:48;10.55;;;3.60;;
25667;SDS011;18003;-33.830;151.202;2023-04-25T14:06:18;11.97;;;3.50;;
25667;SDS011;18003;-33.830;151.202;2023-04-25T14:08:50;9.73;;;3.42;;
25667;SDS011;18003;-33.830;151.202;2023-04-25T14:11:20;10.18;;;3.50;;
25667;SDS011;18003;-33.830;151.202;2023-04-25T14:13:50;12.28;;;3.40;;
25667;SDS011;18003;-33.830;151.202;2023-04-25T14:16:20;9.90;;;3.40;;
25667;SDS011;18003;-33.830;151.202;2023-04-25T14:18:53;10.78;;;3.40;;
25667;SDS011;18003;-33.830;151.202;2023-04-25T14:21:23;8.03;;;2.87;;
25667;SDS011;18003;-33.830;151.202;2023-04-25T14:23:56;8.58;;;2.80;;
25667;SDS011;18003;-33.830;151.202;2023-04-25T14:26:24;9.28;;;3.02;;
25667;SDS011;18003;-33.830;151.202;2023-04-25T14:28:54;10.70;;;3.20;;
25667;SDS011;18003;-33.830;151.202;2023-04-25T14:31:24;10.55;;;3.40;;
25667;SDS011;18003;-33.830;151.202;2023-04-25T14:33:54;12.53;;;3.10;;
25667;SDS011;18003;-33.830;151.202;2023-04-25T14:36:24;8.18;;;3.10;;
25667;SDS011;18003;-33.830;151.202;2023-04-25T14:38:55;8.25;;;3.12;;
25667;SDS011;18003;-33.830;151.202;2023-04-25T14:41:26;9.20;;;3.08;;
25667;SDS011;18003;-33.830;151.202;2023-04-25T14:43:57;8.90;;;3.17;;
25667;SDS011;18003;-33.830;151.202;2023-04-25T14:46:27;8.60;;;2.65;;
25667;SDS011;18003;-33.830;151.202;2023-04-25T14:49:00;10.13;;;3.00;;